This is the latest recevied weather packets stored in our database for station/object OK1KZE-6. If no packets are shown the sender has not sent any weather packets the latest 1 day(s).
| Time | Temp. | Humidity | Pressure | Rain* | Wind** | Luminosity | Snow |
|---|---|---|---|---|---|---|---|
| 1777963507 | 15.56° C | 76% | 1011.3 hPa | - | 4.47 m/s, 78° | - | - |
| 1777963208 | -1.11° C | 100% | 1011.2 hPa | - | 0 m/s | - | - |
| 1777962908 | 16.11° C | 76% | 1011.1 hPa | - | 4.92 m/s, 82° | - | - |
| 1777962608 | 16.11° C | 76% | 1011.2 hPa | - | 4.92 m/s, 82° | - | - |
| 1777962307 | 16.11° C | 74% | 1011.3 hPa | - | 4.02 m/s, 73° | - | - |
| 1777962008 | 15.56° C | 78% | 1011.3 hPa | - | 4.02 m/s, 76° | - | - |
| 1777961709 | 15.56° C | 77% | 1011.1 hPa | - | 3.58 m/s, 76° | - | - |
| 1777961407 | 15° C | 79% | 1011.3 hPa | - | 2.68 m/s, 91° | - | - |
| 1777961107 | 15° C | 80% | 1011.2 hPa | - | 2.24 m/s, 95° | - | - |
| 1777960808 | 14.44° C | 82% | 1011.3 hPa | - | 1.79 m/s, 89° | - | - |
| 1777960508 | 13.89° C | 86% | 1011.2 hPa | - | 2.68 m/s, 107° | - | - |
| 1777960208 | 13.89° C | 86% | 1011.5 hPa | - | 0.89 m/s, 140° | - | - |
| 1777959908 | 13.89° C | 84% | 1011.2 hPa | - | 1.79 m/s, 117° | - | - |
| 1777959608 | 13.33° C | 87% | 1011.3 hPa | - | 2.68 m/s, 126° | - | - |
| 1777959307 | 13.33° C | 85% | 1011.3 hPa | - | 2.24 m/s, 146° | - | - |
| 1777959008 | 13.89° C | 84% | 1011.2 hPa | - | 2.24 m/s, 132° | - | - |
| 1777958707 | 14.44° C | 82% | 1011.2 hPa | - | 2.68 m/s, 114° | - | - |
| 1777958108 | 15° C | 80% | 1011.1 hPa | - | 2.24 m/s, 80° | - | - |
| 1777957808 | 15° C | 78% | 1011.1 hPa | - | 1.79 m/s, 77° | - | - |
| 1777957507 | 14.44° C | 80% | 1011 hPa | - | 1.79 m/s, 114° | - | - |
| 1777957208 | 14.44° C | 78% | 1011.2 hPa | - | 1.79 m/s, 115° | - | - |
| 1777956908 | 13.89° C | 81% | 1011.2 hPa | - | 1.79 m/s, 121° | - | - |
| 1777956607 | 13.89° C | 81% | 1011.1 hPa | - | 2.24 m/s, 110° | - | - |
| 1777956309 | 13.89° C | 82% | 1011 hPa | - | 2.24 m/s, 113° | - | - |
| 1777956008 | 13.33° C | 84% | 1011 hPa | - | 2.24 m/s, 120° | - | - |
* Rain since midnight (hover to see other rain measurements)
** Current wind speed in m/s (hover to see current wind gust speed)